createdAt,value
2023-02-27T00:01:06.279Z,-1.77
2023-02-27T00:03:34.372Z,-1.77
2023-02-27T00:06:02.542Z,-1.74
2023-02-27T00:08:32.886Z,-1.72
2023-02-27T00:11:01.094Z,-1.71
2023-02-27T00:13:30.648Z,-1.71
2023-02-27T00:15:58.928Z,-1.70
2023-02-27T00:18:27.084Z,-1.70
2023-02-27T00:20:55.081Z,-1.71
2023-02-27T00:23:23.176Z,-1.68
2023-02-27T00:25:52.402Z,-1.65
2023-02-27T00:28:20.544Z,-1.62
2023-02-27T00:30:50.161Z,-1.60
2023-02-27T00:33:18.787Z,-1.60
2023-02-27T00:35:47.075Z,-1.62
2023-02-27T00:38:15.166Z,-1.60
2023-02-27T00:40:43.375Z,-1.54
2023-02-27T00:43:11.561Z,-1.51
2023-02-27T00:45:40.003Z,-1.48
2023-02-27T00:48:09.615Z,-1.43
2023-02-27T00:50:37.626Z,-1.37
2023-02-27T00:53:05.759Z,-1.34
2023-02-27T00:55:34.034Z,-1.36
2023-02-27T00:58:02.602Z,-1.40
2023-02-27T01:00:30.714Z,-1.51
2023-02-27T01:02:58.923Z,-1.55
2023-02-27T01:05:28.951Z,-1.53
2023-02-27T01:07:57.049Z,-1.56
2023-02-27T01:10:25.301Z,-1.59
2023-02-27T01:12:53.408Z,-1.65
2023-02-27T01:15:21.652Z,-1.71
2023-02-27T01:17:49.719Z,-1.79
2023-02-27T01:20:17.795Z,-1.80
2023-02-27T01:22:48.226Z,-1.80
2023-02-27T01:25:17.090Z,-1.79
2023-02-27T01:27:45.187Z,-1.80
2023-02-27T01:30:15.863Z,-1.84
2023-02-27T01:32:46.144Z,-1.89
2023-02-27T01:35:14.646Z,-1.91
2023-02-27T01:37:44.022Z,-1.89
2023-02-27T01:40:15.526Z,-1.83
2023-02-27T01:42:43.598Z,-1.74
2023-02-27T01:45:27.731Z,-1.65
2023-02-27T01:47:58.936Z,-1.54
2023-02-27T01:50:27.633Z,-1.48
2023-02-27T01:52:58.396Z,-1.46
2023-02-27T01:55:29.251Z,-1.44
2023-02-27T01:57:58.186Z,-1.43
2023-02-27T02:00:26.513Z,-1.40
2023-02-27T02:02:59.845Z,-1.36
2023-02-27T02:05:28.933Z,-1.30
2023-02-27T02:07:57.246Z,-1.29
2023-02-27T02:10:25.891Z,-1.29
2023-02-27T02:12:55.580Z,-1.27
2023-02-27T02:15:26.970Z,-1.27
2023-02-27T02:18:01.275Z,-1.27
2023-02-27T02:20:45.626Z,-1.30
2023-02-27T02:23:30.520Z,-1.34
2023-02-27T02:26:09.827Z,-1.40
2023-02-27T02:28:52.313Z,-1.44
2023-02-27T02:31:34.752Z,-1.46
2023-02-27T02:34:17.985Z,-1.47
2023-02-27T02:37:04.659Z,-1.50
2023-02-27T02:39:48.941Z,-1.51
2023-02-27T02:42:20.200Z,-1.57
2023-02-27T02:44:56.264Z,-1.58
2023-02-27T02:47:28.126Z,-1.59
2023-02-27T02:49:58.115Z,-1.63
2023-02-27T02:52:31.005Z,-1.65
2023-02-27T02:55:05.116Z,-1.66
2023-02-27T02:57:35.626Z,-1.69
2023-02-27T03:00:07.451Z,-1.77
2023-02-27T03:02:40.124Z,-1.80
2023-02-27T03:05:10.036Z,-1.78
2023-02-27T03:07:41.259Z,-1.78
2023-02-27T03:10:14.437Z,-1.76
2023-02-27T03:12:47.032Z,-1.72
2023-02-27T03:15:18.673Z,-1.68
2023-02-27T03:17:48.762Z,-1.66
2023-02-27T03:20:20.306Z,-1.67
2023-02-27T03:22:49.510Z,-1.69
2023-02-27T03:25:19.390Z,-1.73
2023-02-27T03:27:54.417Z,-1.77
2023-02-27T03:30:27.382Z,-1.79
2023-02-27T03:32:59.121Z,-1.84
2023-02-27T03:35:30.688Z,-1.91
2023-02-27T03:38:01.236Z,-1.96
2023-02-27T03:40:34.671Z,-1.99
2023-02-27T03:43:11.842Z,-2.03
2023-02-27T03:45:55.910Z,-2.06
2023-02-27T03:48:24.332Z,-2.08
2023-02-27T03:50:52.586Z,-2.13
2023-02-27T03:53:24.623Z,-2.19
2023-02-27T03:55:54.948Z,-2.23
2023-02-27T03:58:23.258Z,-2.26
2023-02-27T04:00:51.666Z,-2.24
2023-02-27T04:03:21.448Z,-2.27
2023-02-27T04:05:50.885Z,-2.31
2023-02-27T04:08:32.863Z,-2.32
2023-02-27T04:11:11.946Z,-2.31
2023-02-27T04:13:45.690Z,-2.34
2023-02-27T04:16:22.036Z,-2.30
2023-02-27T04:18:56.965Z,-2.25
2023-02-27T04:21:29.544Z,-2.19
2023-02-27T04:23:59.988Z,-2.14
2023-02-27T04:26:31.891Z,-2.13
2023-02-27T04:29:05.089Z,-2.11
2023-02-27T04:31:40.268Z,-2.11
2023-02-27T04:34:11.852Z,-2.14
2023-02-27T04:36:42.841Z,-2.13
2023-02-27T04:39:18.149Z,-2.12
2023-02-27T04:41:49.663Z,-2.12
2023-02-27T04:44:20.454Z,-2.09
2023-02-27T04:46:49.474Z,-2.02
2023-02-27T04:49:19.913Z,-2.00
2023-02-27T04:51:52.047Z,-2.00
2023-02-27T04:54:22.784Z,-1.96
2023-02-27T04:56:54.065Z,-1.92
2023-02-27T04:59:24.319Z,-1.87
2023-02-27T05:01:55.756Z,-1.85
2023-02-27T05:04:26.602Z,-1.83
2023-02-27T05:06:56.152Z,-1.83
2023-02-27T05:09:28.188Z,-1.82
2023-02-27T05:12:00.626Z,-1.84
2023-02-27T05:14:31.468Z,-1.88
2023-02-27T05:17:04.017Z,-1.87
2023-02-27T05:19:33.111Z,-1.82
2023-02-27T05:22:05.988Z,-1.78
2023-02-27T05:24:37.521Z,-1.77
2023-02-27T05:27:20.598Z,-1.79
2023-02-27T05:29:51.331Z,-1.81
2023-02-27T05:32:23.961Z,-1.83
2023-02-27T05:34:54.276Z,-1.83
2023-02-27T05:37:24.692Z,-1.84
2023-02-27T05:39:53.442Z,-1.82
2023-02-27T05:42:24.894Z,-1.80
2023-02-27T05:44:57.499Z,-1.77
2023-02-27T05:47:28.823Z,-1.76
2023-02-27T05:50:01.220Z,-1.79
2023-02-27T05:52:30.837Z,-1.79
2023-02-27T05:55:02.212Z,-1.80
2023-02-27T05:57:33.150Z,-1.82
2023-02-27T06:00:06.365Z,-1.83
2023-02-27T06:02:40.220Z,-1.88
2023-02-27T06:05:10.759Z,-1.93
2023-02-27T06:07:39.360Z,-1.96
2023-02-27T06:10:08.276Z,-2.03
2023-02-27T06:12:36.344Z,-2.09
2023-02-27T06:15:06.445Z,-2.08
2023-02-27T06:17:34.989Z,-2.06
2023-02-27T06:20:03.482Z,-2.05
2023-02-27T06:22:31.665Z,-2.04
2023-02-27T06:24:59.774Z,-2.06
2023-02-27T06:27:28.038Z,-2.09
2023-02-27T06:29:58.095Z,-2.10
2023-02-27T06:32:28.142Z,-2.12
2023-02-27T06:34:56.238Z,-2.13
2023-02-27T06:37:24.299Z,-2.17
2023-02-27T06:39:52.480Z,-2.18
2023-02-27T06:42:20.764Z,-2.20
2023-02-27T06:44:48.890Z,-2.21
2023-02-27T06:47:16.855Z,-2.21
2023-02-27T06:49:46.346Z,-2.20
2023-02-27T06:52:14.525Z,-2.20
2023-02-27T06:54:42.650Z,-2.17
2023-02-27T06:57:10.923Z,-2.15
2023-02-27T06:59:39.283Z,-2.14
2023-02-27T07:02:07.660Z,-2.21
2023-02-27T07:04:35.834Z,-2.09
2023-02-27T07:07:32.293Z,-1.98
2023-02-27T07:09:53.462Z,-1.86
2023-02-27T07:12:21.635Z,-1.76
2023-02-27T07:14:49.701Z,-1.68
2023-02-27T07:17:17.930Z,-1.59
2023-02-27T07:19:46.477Z,-1.50
2023-02-27T07:22:16.033Z,-1.43
2023-02-27T07:24:44.209Z,-1.37
2023-02-27T07:27:12.364Z,-1.30
2023-02-27T07:29:40.489Z,-1.23
2023-02-27T07:32:08.589Z,-1.16
2023-02-27T07:34:36.648Z,-1.06
2023-02-27T07:37:04.767Z,-0.95
2023-02-27T07:39:34.381Z,-0.85
2023-02-27T07:42:02.581Z,-0.76
2023-02-27T07:44:30.633Z,-0.67
2023-02-27T07:46:58.830Z,-0.56
2023-02-27T07:49:26.927Z,-0.46
2023-02-27T07:51:55.034Z,-0.35
2023-02-27T07:54:23.488Z,-0.24
2023-02-27T07:56:53.069Z,-0.14
2023-02-27T07:59:21.294Z,-0.06
2023-02-27T08:01:49.362Z,0.02
2023-02-27T08:04:17.553Z,0.10
2023-02-27T08:06:45.622Z,0.20
2023-02-27T08:09:13.798Z,0.30
2023-02-27T08:11:42.021Z,0.37
2023-02-27T08:14:11.656Z,0.44
2023-02-27T08:16:39.809Z,0.51
2023-02-27T08:19:08.419Z,0.59
2023-02-27T08:21:36.511Z,0.64
2023-02-27T08:24:04.760Z,0.71
2023-02-27T08:26:32.832Z,0.77
2023-02-27T08:29:00.892Z,0.83
2023-02-27T08:31:30.513Z,0.88
2023-02-27T08:34:09.561Z,0.94
2023-02-27T08:36:38.919Z,1.01
2023-02-27T08:39:07.439Z,1.08
2023-02-27T08:41:35.577Z,1.15
2023-02-27T08:44:03.915Z,1.23
2023-02-27T08:46:33.527Z,1.34
2023-02-27T08:49:01.780Z,1.45
2023-02-27T08:51:30.211Z,1.58
2023-02-27T08:53:59.244Z,1.66
2023-02-27T08:56:28.376Z,1.77
2023-02-27T08:58:57.026Z,1.85
2023-02-27T09:01:27.431Z,1.95
2023-02-27T09:03:57.752Z,2.03
2023-02-27T09:06:26.569Z,2.09
2023-02-27T09:08:54.673Z,2.18
2023-02-27T09:11:23.077Z,2.23
2023-02-27T09:13:52.136Z,2.33
2023-02-27T09:16:20.425Z,2.39
2023-02-27T09:18:49.062Z,2.47
2023-02-27T09:21:18.828Z,2.54
2023-02-27T09:23:48.839Z,2.61
2023-02-27T09:26:17.632Z,2.67
2023-02-27T09:28:45.804Z,2.74
2023-02-27T09:31:13.975Z,2.80
2023-02-27T09:33:42.207Z,2.86
2023-02-27T09:36:10.391Z,2.92
2023-02-27T09:38:41.417Z,3.00
2023-02-27T09:41:23.240Z,3.05
2023-02-27T09:43:52.392Z,3.07
2023-02-27T09:46:22.429Z,3.14
2023-02-27T09:48:52.621Z,3.21
2023-02-27T09:51:21.148Z,3.31
2023-02-27T09:53:51.614Z,3.33
2023-02-27T09:56:23.544Z,3.39
2023-02-27T09:58:54.724Z,3.43
2023-02-27T10:01:24.816Z,3.52
2023-02-27T10:04:03.754Z,3.58
2023-02-27T10:06:35.261Z,3.66
2023-02-27T10:09:11.112Z,3.68
2023-02-27T10:11:44.892Z,3.77
2023-02-27T10:14:18.970Z,3.82
2023-02-27T10:16:48.918Z,3.86
2023-02-27T10:19:20.172Z,3.93
2023-02-27T10:21:49.705Z,4.02
2023-02-27T10:24:24.714Z,4.07
2023-02-27T10:26:54.785Z,4.16
2023-02-27T10:29:28.738Z,4.22
2023-02-27T10:31:59.007Z,4.29
2023-02-27T10:34:29.338Z,4.37
2023-02-27T10:36:58.125Z,4.44
2023-02-27T10:39:29.639Z,4.50
2023-02-27T10:42:00.997Z,4.59
2023-02-27T10:44:29.278Z,4.66
2023-02-27T10:46:57.395Z,4.61
2023-02-27T10:49:25.619Z,4.65
2023-02-27T10:52:06.074Z,4.75
2023-02-27T10:54:35.849Z,4.79
2023-02-27T10:57:05.618Z,4.87
2023-02-27T10:59:35.101Z,4.91
2023-02-27T11:02:05.278Z,5.25
2023-02-27T11:04:34.877Z,5.68
2023-02-27T11:07:04.384Z,6.16
2023-02-27T11:09:33.422Z,6.46
2023-02-27T11:12:14.436Z,6.77
2023-02-27T11:14:50.393Z,6.93
2023-02-27T11:17:26.579Z,6.99
2023-02-27T11:19:54.728Z,6.84
2023-02-27T11:22:24.671Z,7.12
2023-02-27T11:24:53.541Z,7.62
2023-02-27T11:27:26.796Z,8.17
2023-02-27T11:29:59.348Z,8.59
2023-02-27T11:32:28.789Z,8.97
2023-02-27T11:34:57.175Z,9.16
2023-02-27T11:37:28.711Z,9.03
2023-02-27T11:40:00.862Z,8.89
2023-02-27T11:42:32.693Z,8.72
2023-02-27T11:45:02.250Z,8.57
2023-02-27T11:47:33.523Z,8.25
2023-02-27T11:50:10.447Z,8.13
2023-02-27T11:52:43.349Z,7.82
2023-02-27T11:55:16.189Z,7.66
2023-02-27T11:57:46.928Z,7.59
2023-02-27T12:00:23.680Z,7.37
2023-02-27T12:02:57.258Z,7.39
2023-02-27T12:05:27.490Z,7.40
2023-02-27T12:07:57.617Z,7.34
2023-02-27T12:10:27.643Z,7.43
2023-02-27T12:12:59.853Z,7.40
2023-02-27T12:15:30.878Z,7.42
2023-02-27T12:18:04.857Z,7.34
2023-02-27T12:20:36.606Z,7.20
2023-02-27T12:23:07.542Z,7.06
2023-02-27T12:25:38.491Z,6.90
2023-02-27T12:28:14.510Z,6.92
2023-02-27T12:30:46.337Z,7.09
2023-02-27T12:33:17.802Z,7.29
2023-02-27T12:35:47.941Z,7.64
2023-02-27T12:38:16.384Z,8.10
2023-02-27T12:40:48.011Z,8.54
2023-02-27T12:43:30.955Z,8.79
2023-02-27T12:46:17.230Z,8.82
2023-02-27T12:48:53.929Z,9.00
2023-02-27T12:51:30.179Z,9.31
2023-02-27T12:54:05.163Z,9.44
2023-02-27T12:56:37.491Z,9.37
2023-02-27T12:59:09.743Z,9.43
2023-02-27T13:01:43.179Z,9.37
2023-02-27T13:04:19.422Z,9.20
2023-02-27T13:06:51.239Z,9.10
2023-02-27T13:09:27.137Z,9.03
2023-02-27T13:11:59.752Z,8.83
2023-02-27T13:14:31.460Z,8.64
2023-02-27T13:17:02.248Z,8.56
2023-02-27T13:19:34.470Z,8.40
2023-02-27T13:22:07.382Z,8.33
2023-02-27T13:24:36.110Z,8.16
2023-02-27T13:27:08.019Z,8.12
2023-02-27T13:29:38.270Z,8.15
2023-02-27T13:32:21.449Z,8.12
2023-02-27T13:34:55.452Z,8.04
2023-02-27T13:37:23.565Z,7.97
2023-02-27T13:39:56.268Z,7.83
2023-02-27T13:42:43.329Z,7.78
2023-02-27T13:45:26.243Z,7.76
2023-02-27T13:47:56.791Z,7.68
2023-02-27T13:50:43.576Z,7.62
2023-02-27T13:53:17.246Z,7.55
2023-02-27T13:55:45.626Z,7.61
2023-02-27T13:58:23.401Z,7.59
2023-02-27T14:00:56.693Z,7.61
2023-02-27T14:03:26.610Z,7.65
2023-02-27T14:05:57.020Z,7.58
2023-02-27T14:08:27.941Z,7.65
2023-02-27T14:10:58.543Z,7.68
2023-02-27T14:13:54.937Z,7.79
2023-02-27T14:16:38.011Z,7.85
2023-02-27T14:19:27.451Z,7.70
2023-02-27T14:21:57.416Z,7.70
2023-02-27T14:24:30.118Z,7.64
2023-02-27T14:26:58.754Z,7.54
2023-02-27T14:29:31.360Z,7.25
2023-02-27T14:32:01.720Z,7.30
2023-02-27T14:34:30.350Z,7.19
2023-02-27T14:37:00.340Z,7.25
2023-02-27T14:39:31.817Z,7.27
2023-02-27T14:42:06.765Z,7.32
2023-02-27T14:44:39.235Z,7.35
2023-02-27T14:47:07.470Z,7.28
2023-02-27T14:49:36.822Z,7.15
2023-02-27T14:52:15.586Z,7.24
2023-02-27T14:54:45.427Z,7.14
2023-02-27T14:57:16.941Z,7.11
2023-02-27T14:59:46.160Z,7.12
2023-02-27T15:02:18.089Z,7.20
2023-02-27T15:04:47.212Z,7.14
2023-02-27T15:07:20.149Z,7.14
2023-02-27T15:09:50.088Z,7.12
2023-02-27T15:12:19.137Z,7.25
2023-02-27T15:14:48.747Z,7.03
2023-02-27T15:17:18.022Z,7.15
2023-02-27T15:19:49.866Z,7.08
2023-02-27T15:22:36.185Z,7.07
2023-02-27T15:25:09.293Z,7.11
2023-02-27T15:27:38.466Z,7.22
2023-02-27T15:30:08.377Z,7.17
2023-02-27T15:32:37.769Z,7.16
2023-02-27T15:35:06.992Z,7.15
2023-02-27T15:37:35.781Z,7.06
2023-02-27T15:40:05.952Z,7.06
2023-02-27T15:42:37.709Z,7.00
2023-02-27T15:45:06.764Z,6.90
2023-02-27T15:47:35.520Z,6.82
2023-02-27T15:50:10.424Z,6.79
2023-02-27T15:52:42.165Z,6.67
2023-02-27T15:55:15.099Z,6.70
2023-02-27T15:58:00.602Z,6.64
2023-02-27T16:00:31.237Z,6.51
2023-02-27T16:02:59.870Z,6.47
2023-02-27T16:05:30.813Z,6.44
2023-02-27T16:07:58.882Z,6.44
2023-02-27T16:10:29.252Z,6.43
2023-02-27T16:12:58.709Z,6.47
2023-02-27T16:15:31.448Z,6.48
2023-02-27T16:18:04.494Z,6.47
2023-02-27T16:20:38.163Z,6.50
2023-02-27T16:23:07.359Z,6.52
2023-02-27T16:25:35.473Z,6.46
2023-02-27T16:28:05.342Z,6.46
2023-02-27T16:30:33.369Z,6.43
2023-02-27T16:33:02.985Z,6.44
2023-02-27T16:35:31.281Z,6.47
2023-02-27T16:38:03.639Z,6.47
2023-02-27T16:40:32.164Z,6.40
2023-02-27T16:43:01.453Z,6.48
2023-02-27T16:45:32.317Z,6.48
2023-02-27T16:48:01.284Z,6.44
2023-02-27T16:50:31.163Z,6.41
2023-02-27T16:52:59.276Z,6.37
2023-02-27T16:55:27.709Z,6.31
2023-02-27T16:57:56.163Z,6.26
2023-02-27T17:00:24.426Z,6.24
2023-02-27T17:02:54.257Z,6.19
2023-02-27T17:05:24.341Z,6.15
2023-02-27T17:07:52.555Z,6.16
2023-02-27T17:10:22.214Z,6.11
2023-02-27T17:12:50.394Z,6.10
2023-02-27T17:15:18.678Z,6.07
2023-02-27T17:17:47.037Z,6.04
2023-02-27T17:20:16.752Z,6.00
2023-02-27T17:22:45.702Z,5.97
2023-02-27T17:25:14.458Z,5.93
2023-02-27T17:27:43.304Z,5.86
2023-02-27T17:30:12.114Z,5.78
2023-02-27T17:32:40.345Z,5.78
2023-02-27T17:35:09.023Z,5.76
2023-02-27T17:37:39.130Z,5.75
2023-02-27T17:40:08.357Z,5.67
2023-02-27T17:42:36.980Z,5.68
2023-02-27T17:45:06.558Z,5.59
2023-02-27T17:47:35.140Z,5.54
2023-02-27T17:50:04.209Z,5.60
2023-02-27T17:52:32.431Z,5.61
2023-02-27T17:55:03.561Z,5.57
2023-02-27T17:57:31.781Z,5.56
2023-02-27T17:59:59.842Z,5.51
2023-02-27T18:02:27.995Z,5.48
2023-02-27T18:04:56.052Z,5.47
2023-02-27T18:07:24.378Z,5.43
2023-02-27T18:09:52.569Z,5.42
2023-02-27T18:12:22.386Z,5.38
2023-02-27T18:14:50.843Z,5.29
2023-02-27T18:17:19.202Z,5.26
2023-02-27T18:19:47.200Z,5.26
2023-02-27T18:22:16.365Z,5.25
2023-02-27T18:24:44.592Z,5.22
2023-02-27T18:27:12.950Z,5.24
2023-02-27T18:29:42.811Z,5.24
2023-02-27T18:32:11.331Z,5.26
2023-02-27T18:34:40.768Z,5.25
2023-02-27T18:37:08.961Z,5.21
2023-02-27T18:39:37.142Z,5.20
2023-02-27T18:42:06.790Z,5.22
2023-02-27T18:44:34.988Z,5.22
2023-02-27T18:47:04.795Z,5.23
2023-02-27T18:49:32.987Z,5.23
2023-02-27T18:52:01.204Z,5.12
2023-02-27T18:54:29.692Z,5.15
2023-02-27T18:56:57.732Z,5.14
2023-02-27T18:59:25.945Z,5.10
2023-02-27T19:01:54.111Z,5.10
2023-02-27T19:04:25.517Z,5.10
2023-02-27T19:06:54.037Z,5.11
2023-02-27T19:09:22.349Z,5.02
2023-02-27T19:11:50.782Z,5.08
2023-02-27T19:14:19.080Z,5.07
2023-02-27T19:16:47.355Z,5.06
2023-02-27T19:19:15.459Z,5.04
2023-02-27T19:21:45.044Z,4.99
2023-02-27T19:24:13.562Z,5.03
2023-02-27T19:26:41.862Z,5.04
2023-02-27T19:29:09.976Z,5.01
2023-02-27T19:31:38.278Z,5.03
2023-02-27T19:34:06.727Z,5.04
2023-02-27T19:36:36.088Z,5.05
2023-02-27T19:39:05.936Z,5.01
2023-02-27T19:41:34.183Z,5.01
2023-02-27T19:44:02.286Z,4.97
2023-02-27T19:46:32.198Z,5.00
2023-02-27T19:49:01.841Z,4.99
2023-02-27T19:51:30.115Z,5.02
2023-02-27T19:53:58.259Z,4.97
2023-02-27T19:56:29.396Z,5.00
2023-02-27T19:58:57.866Z,4.98
2023-02-27T20:01:26.867Z,4.94
2023-02-27T20:03:56.049Z,4.92
2023-02-27T20:06:25.565Z,4.87
2023-02-27T20:08:54.239Z,4.80
2023-02-27T20:11:22.718Z,4.85
2023-02-27T20:13:52.935Z,4.87
2023-02-27T20:16:24.069Z,4.86
2023-02-27T20:18:52.580Z,4.81
2023-02-27T20:21:21.670Z,4.80
2023-02-27T20:23:50.825Z,4.77
2023-02-27T20:26:20.045Z,4.64
2023-02-27T20:28:48.616Z,4.70
2023-02-27T20:31:19.306Z,4.70
2023-02-27T20:33:47.599Z,4.71
2023-02-27T20:36:16.175Z,4.73
2023-02-27T20:38:44.788Z,4.64
2023-02-27T20:41:14.653Z,4.70
2023-02-27T20:43:44.340Z,4.68
2023-02-27T20:46:13.592Z,4.64
2023-02-27T20:48:43.884Z,4.65
2023-02-27T20:51:12.979Z,4.65
2023-02-27T20:53:42.152Z,4.63
2023-02-27T20:56:11.275Z,4.61
2023-02-27T20:58:39.892Z,4.62
2023-02-27T21:01:11.941Z,4.64
2023-02-27T21:03:41.174Z,4.65
2023-02-27T21:06:12.930Z,4.66
2023-02-27T21:08:42.308Z,4.65
2023-02-27T21:11:11.032Z,4.62
2023-02-27T21:13:39.803Z,4.61
2023-02-27T21:16:13.730Z,4.58
2023-02-27T21:18:43.865Z,4.56
2023-02-27T21:21:20.341Z,4.59
2023-02-27T21:23:54.018Z,4.58
2023-02-27T21:26:24.810Z,4.54
2023-02-27T21:28:53.444Z,4.53
2023-02-27T21:31:28.874Z,4.49
2023-02-27T21:33:59.118Z,4.44
2023-02-27T21:36:29.328Z,4.45
2023-02-27T21:38:58.072Z,4.39
2023-02-27T21:41:30.771Z,4.36
2023-02-27T21:44:01.202Z,4.32
2023-02-27T21:46:29.903Z,4.31
2023-02-27T21:48:58.724Z,4.29
2023-02-27T21:51:40.005Z,4.27
2023-02-27T21:54:15.497Z,4.25
2023-02-27T21:56:45.539Z,4.23
2023-02-27T21:59:15.655Z,4.22
2023-02-27T22:01:48.763Z,4.24
2023-02-27T22:04:18.275Z,4.27
2023-02-27T22:06:51.351Z,4.28
2023-02-27T22:09:22.422Z,4.26
2023-02-27T22:11:51.574Z,4.24
2023-02-27T22:14:19.973Z,4.21
2023-02-27T22:16:49.835Z,4.17
2023-02-27T22:19:22.092Z,4.15
2023-02-27T22:21:52.210Z,4.06
2023-02-27T22:24:21.364Z,4.05
2023-02-27T22:26:51.867Z,4.04
2023-02-27T22:29:21.804Z,4.06
2023-02-27T22:31:50.137Z,4.03
2023-02-27T22:34:19.470Z,4.01
2023-02-27T22:36:53.114Z,4.01
2023-02-27T22:39:25.303Z,3.96
2023-02-27T22:41:56.960Z,3.93
2023-02-27T22:44:27.201Z,3.89
2023-02-27T22:46:56.830Z,3.90
2023-02-27T22:49:25.274Z,3.90
2023-02-27T22:51:57.180Z,3.93
2023-02-27T22:54:26.881Z,3.91
2023-02-27T22:56:57.958Z,3.92
2023-02-27T22:59:30.923Z,3.94
2023-02-27T23:02:02.081Z,3.95
2023-02-27T23:04:30.830Z,3.97
2023-02-27T23:07:00.583Z,3.97
2023-02-27T23:09:30.474Z,3.97
2023-02-27T23:12:02.257Z,4.00
2023-02-27T23:14:32.082Z,3.98
2023-02-27T23:17:00.561Z,3.90
2023-02-27T23:19:28.769Z,3.97
2023-02-27T23:21:57.022Z,4.00
2023-02-27T23:24:25.090Z,3.99
2023-02-27T23:26:55.048Z,3.90
2023-02-27T23:29:24.058Z,3.93
2023-02-27T23:31:52.830Z,3.94
2023-02-27T23:34:21.337Z,3.92
2023-02-27T23:36:49.946Z,3.91
2023-02-27T23:39:18.022Z,3.93
2023-02-27T23:41:46.058Z,3.98
2023-02-27T23:44:15.900Z,3.95
2023-02-27T23:46:44.772Z,3.94
2023-02-27T23:49:14.472Z,3.95
2023-02-27T23:51:42.618Z,3.94
2023-02-27T23:54:11.926Z,3.91
2023-02-27T23:56:40.124Z,3.92
2023-02-27T23:59:11.282Z,3.92
